createdAt,value
2019-03-16T00:01:04.681Z,6.77
2019-03-16T00:03:35.040Z,6.79
2019-03-16T00:06:05.375Z,6.82
2019-03-16T00:08:36.751Z,6.75
2019-03-16T00:11:09.226Z,6.76
2019-03-16T00:13:39.398Z,6.73
2019-03-16T00:16:09.710Z,6.78
2019-03-16T00:18:41.334Z,6.71
2019-03-16T00:21:13.418Z,6.67
2019-03-16T00:23:47.288Z,6.63
2019-03-16T00:26:17.878Z,6.65
2019-03-16T00:28:48.353Z,6.61
2019-03-16T00:31:18.934Z,6.64
2019-03-16T00:33:49.826Z,6.59
2019-03-16T00:36:20.272Z,6.57
2019-03-16T00:38:51.708Z,6.57
2019-03-16T00:41:22.325Z,6.59
2019-03-16T00:43:55.292Z,6.57
2019-03-16T00:46:25.824Z,6.56
2019-03-16T00:48:56.291Z,6.55
2019-03-16T00:51:26.656Z,6.57
2019-03-16T00:53:56.978Z,6.58
2019-03-16T00:56:28.520Z,6.59
2019-03-16T00:58:59.014Z,6.54
2019-03-16T01:01:30.102Z,6.49
2019-03-16T01:04:00.664Z,6.45
2019-03-16T01:06:31.862Z,6.46
2019-03-16T01:09:02.195Z,6.40
2019-03-16T01:11:32.900Z,6.39
2019-03-16T01:14:03.176Z,6.39
2019-03-16T01:16:36.495Z,6.37
2019-03-16T01:19:06.850Z,6.32
2019-03-16T01:21:37.174Z,6.39
2019-03-16T01:24:08.453Z,6.35
2019-03-16T01:26:38.877Z,6.25
2019-03-16T01:29:09.563Z,6.26
2019-03-16T01:31:39.892Z,6.28
2019-03-16T01:34:10.971Z,6.32
2019-03-16T01:36:46.580Z,6.24
2019-03-16T01:39:16.923Z,6.24
2019-03-16T01:41:47.266Z,6.27
2019-03-16T01:44:17.827Z,6.29
2019-03-16T01:46:48.222Z,6.27
2019-03-16T01:49:18.620Z,6.27
2019-03-16T01:51:51.547Z,6.25
2019-03-16T01:54:22.003Z,6.26
2019-03-16T01:56:52.463Z,6.28
2019-03-16T01:59:23.231Z,6.36
2019-03-16T02:01:57.423Z,6.38
2019-03-16T02:04:28.167Z,6.35
2019-03-16T02:07:01.061Z,6.38
2019-03-16T02:09:31.382Z,6.39
2019-03-16T02:12:01.745Z,6.41
2019-03-16T02:14:32.212Z,6.43
2019-03-16T02:17:02.689Z,6.44
2019-03-16T02:19:35.993Z,6.40
2019-03-16T02:22:05.686Z,6.45
2019-03-16T02:24:37.404Z,6.49
2019-03-16T02:27:08.009Z,6.45
2019-03-16T02:29:38.930Z,6.43
2019-03-16T02:32:09.568Z,6.48
2019-03-16T02:34:40.531Z,6.49
2019-03-16T02:37:11.010Z,6.51
2019-03-16T02:39:43.096Z,6.48
2019-03-16T02:42:13.501Z,6.41
2019-03-16T02:44:46.078Z,6.45
2019-03-16T02:47:16.681Z,6.43
2019-03-16T02:49:47.632Z,6.52
2019-03-16T02:52:18.014Z,6.53
2019-03-16T02:54:48.343Z,6.46
2019-03-16T02:57:18.732Z,6.48
2019-03-16T02:59:49.103Z,6.46
2019-03-16T03:02:19.474Z,6.42
2019-03-16T03:04:52.254Z,6.37
2019-03-16T03:07:22.725Z,6.40
2019-03-16T03:09:55.952Z,6.40
2019-03-16T03:12:26.407Z,6.43
2019-03-16T03:14:56.745Z,6.40
2019-03-16T03:17:28.381Z,6.44
2019-03-16T03:19:58.757Z,6.38
2019-03-16T03:22:29.536Z,6.39
2019-03-16T03:24:59.976Z,6.38
2019-03-16T03:27:30.744Z,6.40
2019-03-16T03:30:01.305Z,6.44
2019-03-16T03:32:32.971Z,6.44
2019-03-16T03:35:03.585Z,6.43
2019-03-16T03:37:33.913Z,6.41
2019-03-16T03:40:04.927Z,6.46
2019-03-16T03:42:35.507Z,6.42
2019-03-16T03:45:06.792Z,6.33
2019-03-16T03:47:39.634Z,6.34
2019-03-16T03:50:10.221Z,6.34
2019-03-16T03:52:42.260Z,6.36
2019-03-16T03:55:15.797Z,6.29
2019-03-16T03:57:48.209Z,6.32
2019-03-16T04:00:18.815Z,6.38
2019-03-16T04:02:51.301Z,6.25
2019-03-16T04:05:21.919Z,6.23
2019-03-16T04:07:52.645Z,6.21
2019-03-16T04:10:23.059Z,6.21
2019-03-16T04:12:53.487Z,6.20
2019-03-16T04:15:23.916Z,6.18
2019-03-16T04:17:57.389Z,6.22
2019-03-16T04:20:30.389Z,6.17
2019-03-16T04:23:00.722Z,6.18
2019-03-16T04:25:33.230Z,6.14
2019-03-16T04:28:03.630Z,6.17
2019-03-16T04:30:34.365Z,6.20
2019-03-16T04:33:05.504Z,6.23
2019-03-16T04:35:37.787Z,6.25
2019-03-16T04:38:08.116Z,6.21
2019-03-16T04:40:38.524Z,6.33
2019-03-16T04:43:09.048Z,6.28
2019-03-16T04:45:41.055Z,6.25
2019-03-16T04:48:11.490Z,6.24
2019-03-16T04:50:41.704Z,6.19
2019-03-16T04:53:12.038Z,6.19
2019-03-16T04:55:42.459Z,6.17
2019-03-16T04:58:12.806Z,6.12
2019-03-16T05:00:43.214Z,6.19
2019-03-16T05:03:14.158Z,6.14
2019-03-16T05:05:45.094Z,6.21
2019-03-16T05:08:15.940Z,6.25
2019-03-16T05:10:46.471Z,6.21
2019-03-16T05:13:18.655Z,6.33
2019-03-16T05:15:51.293Z,6.31
2019-03-16T05:18:21.862Z,6.27
2019-03-16T05:20:52.337Z,6.31
2019-03-16T05:23:25.994Z,6.35
2019-03-16T05:25:58.540Z,6.36
2019-03-16T05:28:30.127Z,6.30
2019-03-16T05:31:03.203Z,6.38
2019-03-16T05:33:33.915Z,6.38
2019-03-16T05:36:05.467Z,6.46
2019-03-16T05:38:37.078Z,6.41
2019-03-16T05:41:07.486Z,6.41
2019-03-16T05:43:37.808Z,6.37
2019-03-16T05:46:08.192Z,6.41
2019-03-16T05:48:38.467Z,6.39
2019-03-16T05:51:08.990Z,6.45
2019-03-16T05:53:39.286Z,6.52
2019-03-16T05:56:14.743Z,6.57
2019-03-16T05:58:45.087Z,6.53
2019-03-16T06:01:18.786Z,6.55
2019-03-16T06:03:49.886Z,6.62
2019-03-16T06:06:22.756Z,6.61
2019-03-16T06:08:53.167Z,6.61
2019-03-16T06:11:23.488Z,6.63
2019-03-16T06:13:53.906Z,6.73
2019-03-16T06:16:24.682Z,6.70
2019-03-16T06:18:55.196Z,6.67
2019-03-16T06:21:28.362Z,6.71
2019-03-16T06:23:58.931Z,6.75
2019-03-16T06:26:32.530Z,6.80
2019-03-16T06:29:05.952Z,6.89
2019-03-16T06:31:36.390Z,6.81
2019-03-16T06:34:06.715Z,6.86
2019-03-16T06:36:37.768Z,6.91
2019-03-16T06:39:13.298Z,6.90
2019-03-16T06:41:43.874Z,6.84
2019-03-16T06:44:14.210Z,6.93
2019-03-16T06:46:47.101Z,6.90
2019-03-16T06:49:19.189Z,6.84
2019-03-16T06:51:49.473Z,6.84
2019-03-16T06:54:21.427Z,6.94
2019-03-16T06:57:03.318Z,6.89
2019-03-16T06:59:36.575Z,6.87
2019-03-16T07:02:07.430Z,6.71
2019-03-16T07:04:50.140Z,6.61
2019-03-16T07:07:24.084Z,6.44
2019-03-16T07:09:56.314Z,6.49
2019-03-16T07:12:35.013Z,6.36
2019-03-16T07:15:06.924Z,6.31
2019-03-16T07:17:37.567Z,6.09
2019-03-16T07:20:08.107Z,6.22
2019-03-16T07:22:38.851Z,6.27
2019-03-16T07:25:12.135Z,6.07
2019-03-16T07:27:43.610Z,6.22
2019-03-16T07:30:14.230Z,6.18
2019-03-16T07:32:44.687Z,6.14
2019-03-16T07:35:15.055Z,6.04
2019-03-16T07:37:45.430Z,6.01
2019-03-16T07:40:15.992Z,6.06
2019-03-16T07:42:46.597Z,5.90
2019-03-16T07:45:16.799Z,5.87
2019-03-16T07:47:47.231Z,5.77
2019-03-16T07:50:19.954Z,5.64
2019-03-16T07:52:49.930Z,5.66
2019-03-16T07:55:22.019Z,5.61
2019-03-16T07:57:52.961Z,5.64
2019-03-16T08:00:23.408Z,5.70
2019-03-16T08:02:54.733Z,5.54
2019-03-16T08:05:24.949Z,5.65
2019-03-16T08:08:01.114Z,5.66
2019-03-16T08:10:31.730Z,5.69
2019-03-16T08:13:02.255Z,5.62
2019-03-16T08:15:32.480Z,5.82
2019-03-16T08:18:03.231Z,5.95
2019-03-16T08:20:35.680Z,6.13
2019-03-16T08:23:07.723Z,6.22
2019-03-16T08:25:38.038Z,6.22
2019-03-16T08:28:08.366Z,6.43
2019-03-16T08:30:38.834Z,6.49
2019-03-16T08:33:09.262Z,6.58
2019-03-16T08:35:39.815Z,6.60
2019-03-16T08:38:11.830Z,6.60
2019-03-16T08:40:43.737Z,6.60
2019-03-16T08:43:17.141Z,6.67
2019-03-16T08:45:47.505Z,6.71
2019-03-16T08:48:23.150Z,6.79
2019-03-16T08:50:50.141Z,6.62
2019-03-16T08:53:22.748Z,6.64
2019-03-16T08:55:52.508Z,6.76
2019-03-16T08:58:24.772Z,6.81
2019-03-16T09:00:54.960Z,6.57
2019-03-16T09:03:25.222Z,6.50
2019-03-16T09:05:56.496Z,6.40
2019-03-16T09:08:29.022Z,6.44
2019-03-16T09:10:59.212Z,6.58
2019-03-16T09:13:34.408Z,6.63
2019-03-16T09:16:04.638Z,6.75
2019-03-16T09:18:34.914Z,6.61
2019-03-16T09:21:07.328Z,6.76
2019-03-16T09:23:37.303Z,6.80
2019-03-16T09:26:08.062Z,6.74
2019-03-16T09:28:38.362Z,6.91
2019-03-16T09:31:11.062Z,7.06
2019-03-16T09:33:41.360Z,7.21
2019-03-16T09:36:11.516Z,6.88
2019-03-16T09:38:41.761Z,7.17
2019-03-16T09:41:15.769Z,7.17
2019-03-16T09:43:47.702Z,7.04
2019-03-16T09:46:18.974Z,7.10
2019-03-16T09:48:49.456Z,7.25
2019-03-16T09:51:19.648Z,7.24
2019-03-16T09:53:49.992Z,7.41
2019-03-16T09:56:20.858Z,7.59
2019-03-16T09:58:53.453Z,7.64
2019-03-16T10:01:27.586Z,7.62
2019-03-16T10:03:58.019Z,7.73
2019-03-16T10:06:28.279Z,7.54
2019-03-16T10:08:58.476Z,7.59
2019-03-16T10:11:28.960Z,7.55
2019-03-16T10:13:59.222Z,7.58
2019-03-16T10:16:31.844Z,7.63
2019-03-16T10:19:03.248Z,7.56
2019-03-16T10:21:33.476Z,7.58
2019-03-16T10:24:04.593Z,7.56
2019-03-16T10:26:37.428Z,7.59
2019-03-16T10:29:10.486Z,7.68
2019-03-16T10:31:40.714Z,7.64
2019-03-16T10:34:15.753Z,7.63
2019-03-16T10:36:45.998Z,7.59
2019-03-16T10:39:17.657Z,7.53
2019-03-16T10:41:49.589Z,7.58
2019-03-16T10:44:19.842Z,7.57
2019-03-16T10:46:50.045Z,7.47
2019-03-16T10:49:20.321Z,7.58
2019-03-16T10:51:57.260Z,7.50
2019-03-16T10:54:31.256Z,7.50
2019-03-16T10:57:04.484Z,7.52
2019-03-16T10:59:35.029Z,7.42
2019-03-16T11:02:07.269Z,7.39
2019-03-16T11:04:37.678Z,7.31
2019-03-16T11:07:08.079Z,7.38
2019-03-16T11:09:38.350Z,7.42
2019-03-16T11:12:08.503Z,7.08
2019-03-16T11:14:41.509Z,7.14
2019-03-16T11:17:16.035Z,7.08
2019-03-16T11:19:46.235Z,7.12
2019-03-16T11:22:19.325Z,7.03
2019-03-16T11:24:51.019Z,7.16
2019-03-16T11:27:21.328Z,7.17
2019-03-16T11:29:55.139Z,7.26
2019-03-16T11:32:26.814Z,7.18
2019-03-16T11:35:00.971Z,7.22
2019-03-16T11:37:31.249Z,7.24
2019-03-16T11:40:03.028Z,7.15
2019-03-16T11:42:34.594Z,7.34
2019-03-16T11:45:05.148Z,7.45
2019-03-16T11:47:35.392Z,7.39
2019-03-16T11:50:09.052Z,7.41
2019-03-16T11:52:39.451Z,7.36
2019-03-16T11:55:10.074Z,7.39
2019-03-16T11:57:41.471Z,7.28
2019-03-16T12:00:12.140Z,7.41
2019-03-16T12:02:43.583Z,7.51
2019-03-16T12:05:16.233Z,7.53
2019-03-16T12:07:50.333Z,7.51
2019-03-16T12:10:20.603Z,7.60
2019-03-16T12:12:51.179Z,7.69
2019-03-16T12:15:21.599Z,7.78
2019-03-16T12:17:51.974Z,7.85
2019-03-16T12:20:24.355Z,7.93
2019-03-16T12:22:54.601Z,8.01
2019-03-16T12:25:25.314Z,8.10
2019-03-16T12:27:55.763Z,8.16
2019-03-16T12:30:26.057Z,8.16
2019-03-16T12:32:56.614Z,8.26
2019-03-16T12:35:38.859Z,8.33
2019-03-16T12:38:09.016Z,8.33
2019-03-16T12:40:40.436Z,8.42
2019-03-16T12:43:10.587Z,8.45
2019-03-16T12:45:41.380Z,8.50
2019-03-16T12:48:15.218Z,8.54
2019-03-16T12:50:46.559Z,8.55
2019-03-16T12:53:17.096Z,8.61
2019-03-16T12:55:50.197Z,8.64
2019-03-16T12:58:22.467Z,8.69
2019-03-16T13:00:52.753Z,8.81
2019-03-16T13:03:24.532Z,8.97
2019-03-16T13:05:59.049Z,9.08
2019-03-16T13:08:29.662Z,9.16
2019-03-16T13:10:59.952Z,9.22
2019-03-16T13:13:33.942Z,9.21
2019-03-16T13:16:07.136Z,9.24
2019-03-16T13:18:41.444Z,9.27
2019-03-16T13:21:16.016Z,9.28
2019-03-16T13:23:50.974Z,9.32
2019-03-16T13:26:23.501Z,9.31
2019-03-16T13:29:04.980Z,9.33
2019-03-16T13:31:41.455Z,9.36
2019-03-16T13:34:17.976Z,9.47
2019-03-16T13:36:51.508Z,9.53
2019-03-16T13:39:24.358Z,9.51
2019-03-16T13:41:54.715Z,9.54
2019-03-16T13:44:25.268Z,9.61
2019-03-16T13:46:58.924Z,9.67
2019-03-16T13:49:30.145Z,9.72
2019-03-16T13:52:02.986Z,9.70
2019-03-16T13:54:35.973Z,9.71
2019-03-16T13:57:06.491Z,9.74
2019-03-16T13:59:36.858Z,9.74
2019-03-16T14:02:07.160Z,9.78
2019-03-16T14:04:40.362Z,9.80
2019-03-16T14:07:10.752Z,9.81
2019-03-16T14:09:41.138Z,9.79
2019-03-16T14:12:11.590Z,9.81
2019-03-16T14:14:42.492Z,9.82
2019-03-16T14:17:13.126Z,9.80
2019-03-16T14:19:44.519Z,9.82
2019-03-16T14:22:16.685Z,9.86
2019-03-16T14:24:48.009Z,9.90
2019-03-16T14:27:18.477Z,9.86
2019-03-16T14:29:48.964Z,9.89
2019-03-16T14:32:19.322Z,9.89
2019-03-16T14:34:49.770Z,9.91
2019-03-16T14:37:20.883Z,9.94
2019-03-16T14:39:51.152Z,9.97
2019-03-16T14:42:22.430Z,9.97
2019-03-16T14:44:53.425Z,9.93
2019-03-16T14:47:26.797Z,9.94
2019-03-16T14:49:58.136Z,9.94
2019-03-16T14:52:31.959Z,9.97
2019-03-16T14:55:02.279Z,9.98
2019-03-16T14:57:33.918Z,9.95
2019-03-16T15:00:04.649Z,9.96
2019-03-16T15:02:35.667Z,9.95
2019-03-16T15:05:06.302Z,9.99
2019-03-16T15:07:41.057Z,10.04
2019-03-16T15:10:11.617Z,10.08
2019-03-16T15:12:42.342Z,10.09
2019-03-16T15:15:14.199Z,10.06
2019-03-16T15:17:47.437Z,10.09
2019-03-16T15:20:17.915Z,10.14
2019-03-16T15:22:48.359Z,10.22
2019-03-16T15:25:19.846Z,10.23
2019-03-16T15:27:50.317Z,10.20
2019-03-16T15:30:21.406Z,10.21
2019-03-16T15:32:53.698Z,10.18
2019-03-16T15:35:25.592Z,10.18
2019-03-16T15:37:58.965Z,10.19
2019-03-16T15:40:29.399Z,10.16
2019-03-16T15:43:00.168Z,10.16
2019-03-16T15:45:30.965Z,10.13
2019-03-16T15:48:01.153Z,10.16
2019-03-16T15:50:31.520Z,10.15
2019-03-16T15:53:03.244Z,10.16
2019-03-16T15:55:34.576Z,10.16
2019-03-16T15:58:08.488Z,10.14
2019-03-16T16:00:38.315Z,10.16
2019-03-16T16:03:10.567Z,10.13
2019-03-16T16:05:44.881Z,10.13
2019-03-16T16:08:15.377Z,10.12
2019-03-16T16:10:45.881Z,10.07
2019-03-16T16:13:16.311Z,10.02
2019-03-16T16:15:47.107Z,10.06
2019-03-16T16:18:17.468Z,10.00
2019-03-16T16:20:48.175Z,10.00
2019-03-16T16:23:19.845Z,9.98
2019-03-16T16:25:50.206Z,9.94
2019-03-16T16:28:20.604Z,9.97
2019-03-16T16:30:51.920Z,9.94
2019-03-16T16:33:23.442Z,9.97
2019-03-16T16:35:54.096Z,10.00
2019-03-16T16:38:24.399Z,9.97
2019-03-16T16:40:55.365Z,9.97
2019-03-16T16:43:28.839Z,9.97
2019-03-16T16:45:59.087Z,10.02
2019-03-16T16:48:29.404Z,9.98
2019-03-16T16:50:59.605Z,9.94
2019-03-16T16:53:30.159Z,9.98
2019-03-16T16:56:00.432Z,9.99
2019-03-16T16:58:30.658Z,10.00
2019-03-16T17:01:02.939Z,10.03
2019-03-16T17:03:33.395Z,10.05
2019-03-16T17:06:03.549Z,10.08
2019-03-16T17:08:33.995Z,10.10
2019-03-16T17:11:04.334Z,10.11
2019-03-16T17:13:35.855Z,10.12
2019-03-16T17:16:11.332Z,10.14
2019-03-16T17:18:43.330Z,10.13
2019-03-16T17:21:13.596Z,10.15
2019-03-16T17:23:46.922Z,10.16
2019-03-16T17:26:17.381Z,10.14
2019-03-16T17:28:51.566Z,10.11
2019-03-16T17:31:21.778Z,10.11
2019-03-16T17:33:52.050Z,10.11
2019-03-16T17:36:22.606Z,10.13
2019-03-16T17:38:54.450Z,10.10
2019-03-16T17:41:24.683Z,10.15
2019-03-16T17:43:56.227Z,10.14
2019-03-16T17:46:26.503Z,10.09
2019-03-16T17:48:56.815Z,10.17
2019-03-16T17:51:27.098Z,10.16
2019-03-16T17:53:57.219Z,10.17
2019-03-16T17:56:27.431Z,10.19
2019-03-16T17:58:57.856Z,10.17
2019-03-16T18:01:30.836Z,10.18
2019-03-16T18:04:01.228Z,10.22
2019-03-16T18:06:31.631Z,10.18
2019-03-16T18:09:02.201Z,10.19
2019-03-16T18:11:36.098Z,10.22
2019-03-16T18:14:08.114Z,10.23
2019-03-16T18:16:38.348Z,10.23
2019-03-16T18:19:10.234Z,10.26
2019-03-16T18:21:40.505Z,10.24
2019-03-16T18:24:10.894Z,10.24
2019-03-16T18:26:41.407Z,10.26
2019-03-16T18:29:13.410Z,10.26
2019-03-16T18:31:43.800Z,10.25
2019-03-16T18:34:18.481Z,10.23
2019-03-16T18:36:49.849Z,10.25
2019-03-16T18:39:21.100Z,10.29
2019-03-16T18:41:52.938Z,10.25
2019-03-16T18:44:23.209Z,10.27
2019-03-16T18:46:53.322Z,10.24
2019-03-16T18:49:23.552Z,10.29
2019-03-16T18:51:56.150Z,10.27
2019-03-16T18:54:26.341Z,10.27
2019-03-16T18:56:59.564Z,10.25
2019-03-16T18:59:29.819Z,10.26
2019-03-16T19:02:00.072Z,10.26
2019-03-16T19:04:30.316Z,10.26
2019-03-16T19:07:00.695Z,10.32
2019-03-16T19:09:31.175Z,10.29
2019-03-16T19:12:01.311Z,10.27
2019-03-16T19:14:32.155Z,10.24
2019-03-16T19:17:03.491Z,10.25
2019-03-16T19:19:33.671Z,10.25
2019-03-16T19:22:03.918Z,10.23
2019-03-16T19:24:34.220Z,10.25
2019-03-16T19:27:04.501Z,10.23
2019-03-16T19:29:34.949Z,10.24
2019-03-16T19:32:05.123Z,10.25
2019-03-16T19:34:37.119Z,10.22
2019-03-16T19:37:07.333Z,10.26
2019-03-16T19:39:37.804Z,10.24
2019-03-16T19:42:07.967Z,10.25
2019-03-16T19:44:39.387Z,10.28
2019-03-16T19:47:09.595Z,10.30
2019-03-16T19:49:40.095Z,10.25
2019-03-16T19:52:14.901Z,10.32
2019-03-16T19:54:45.399Z,10.28
2019-03-16T19:57:16.477Z,10.35
2019-03-16T19:59:50.045Z,10.38
2019-03-16T20:02:24.403Z,10.34
2019-03-16T20:04:54.665Z,10.33
2019-03-16T20:07:27.081Z,10.31
2019-03-16T20:09:58.899Z,10.35
2019-03-16T20:12:28.991Z,10.37
2019-03-16T20:14:59.078Z,10.35
2019-03-16T20:17:29.295Z,10.34
2019-03-16T20:20:01.751Z,10.30
2019-03-16T20:22:36.137Z,10.28
2019-03-16T20:25:13.340Z,10.35
2019-03-16T20:27:44.625Z,10.35
2019-03-16T20:30:14.967Z,10.35
2019-03-16T20:32:48.551Z,10.38
2019-03-16T20:35:17.017Z,10.36
2019-03-16T20:37:49.317Z,10.36
2019-03-16T20:40:19.382Z,10.35
2019-03-16T20:42:49.562Z,10.34
2019-03-16T20:45:19.880Z,10.36
2019-03-16T20:47:51.687Z,10.40
2019-03-16T20:50:23.935Z,10.39
2019-03-16T20:52:54.064Z,10.41
2019-03-16T20:55:27.246Z,10.36
2019-03-16T20:57:57.391Z,10.38
2019-03-16T21:00:27.564Z,10.41
2019-03-16T21:03:00.249Z,10.39
2019-03-16T21:05:35.437Z,10.38
2019-03-16T21:08:05.649Z,10.40
2019-03-16T21:10:35.754Z,10.39
2019-03-16T21:13:05.958Z,10.39
2019-03-16T21:15:36.125Z,10.36
2019-03-16T21:18:06.398Z,10.38
2019-03-16T21:20:39.540Z,10.40
2019-03-16T21:23:09.767Z,10.32
2019-03-16T21:25:39.902Z,10.36
2019-03-16T21:28:11.313Z,10.36
2019-03-16T21:30:42.629Z,10.35
2019-03-16T21:33:28.611Z,10.38
2019-03-16T21:35:50.547Z,10.39
2019-03-16T21:38:20.765Z,10.25
2019-03-16T21:40:50.895Z,10.35
2019-03-16T21:43:21.225Z,10.34
2019-03-16T21:45:57.719Z,10.35
2019-03-16T21:48:29.370Z,10.35
2019-03-16T21:51:03.420Z,10.34
2019-03-16T21:53:35.194Z,10.29
2019-03-16T21:56:05.466Z,10.34
2019-03-16T21:58:36.330Z,10.34
2019-03-16T22:01:06.608Z,10.26
2019-03-16T22:03:41.911Z,10.31
2019-03-16T22:06:08.946Z,10.32
2019-03-16T22:08:39.092Z,10.27
2019-03-16T22:11:12.342Z,10.28
2019-03-16T22:13:42.432Z,10.29
2019-03-16T22:16:15.368Z,10.22
2019-03-16T22:18:45.554Z,10.21
2019-03-16T22:21:21.501Z,10.17
2019-03-16T22:23:54.411Z,10.26
2019-03-16T22:26:24.498Z,10.20
2019-03-16T22:28:54.662Z,10.24
2019-03-16T22:31:24.915Z,10.23
2019-03-16T22:33:55.123Z,10.20
2019-03-16T22:36:27.297Z,10.22
2019-03-16T22:38:58.602Z,10.25
2019-03-16T22:41:28.742Z,10.24
2019-03-16T22:44:00.156Z,10.20
2019-03-16T22:46:30.249Z,10.19
2019-03-16T22:49:00.434Z,10.21
2019-03-16T22:51:30.538Z,10.25
2019-03-16T22:54:00.730Z,10.24
2019-03-16T22:56:30.846Z,10.24
2019-03-16T22:59:03.700Z,10.23
2019-03-16T23:01:33.990Z,10.22
2019-03-16T23:04:07.204Z,10.23
2019-03-16T23:06:36.361Z,10.24
2019-03-16T23:09:08.010Z,10.24
2019-03-16T23:11:42.016Z,10.22
2019-03-16T23:14:12.146Z,10.24
2019-03-16T23:16:45.280Z,10.26
2019-03-16T23:19:15.461Z,10.30
2019-03-16T23:21:46.842Z,10.30
2019-03-16T23:24:19.490Z,10.31
2019-03-16T23:26:50.243Z,10.33
2019-03-16T23:29:20.410Z,10.34
2019-03-16T23:31:50.566Z,10.36
2019-03-16T23:34:20.762Z,10.33
2019-03-16T23:36:51.691Z,10.31
2019-03-16T23:39:24.978Z,10.33
2019-03-16T23:41:55.640Z,10.28
2019-03-16T23:44:27.538Z,10.28
2019-03-16T23:46:59.469Z,10.29
2019-03-16T23:49:29.803Z,10.31
2019-03-16T23:52:00.011Z,10.29
2019-03-16T23:54:30.348Z,10.31
2019-03-16T23:57:00.496Z,10.28
2019-03-16T23:59:30.757Z,10.23
